WIA11 TNCM-TFFJ
Flight info
| Callsign | WIA11 |
|---|---|
| Flight time | 0h 11m |
| Altitude | 5000 |
| Route | PJM |
| Aircraft | DHC6/L-SDFGR/C |
Departure
| Time | 2026-05-05 10:21 |
|---|---|
| Airport | Princess Juliana International Airport (TNCM) |
Arrival
| Time | 2026-05-05 10:33 |
|---|---|
| Airport | St. Jean Airport (TFFJ) |
| Time | Latitude | Longitude | Altitude | Speed | Heading |
|---|---|---|---|---|---|
| 2026-05-05 10:00 | 18.04182 | -63.11208 | 16 ft | 0 kts | 171° |
| 2026-05-05 10:17 | 18.04181 | -63.11208 | 16 ft | 1 kts | 171° |
| 2026-05-05 10:17 | 18.04143 | -63.11225 | 16 ft | 13 kts | 249° |
| 2026-05-05 10:17 | 18.04134 | -63.11288 | 16 ft | 12 kts | 273° |
| 2026-05-05 10:18 | 18.04207 | -63.11308 | 16 ft | 9 kts | 309° |
| 2026-05-05 10:18 | 18.04177 | -63.11331 | 16 ft | 3 kts | 64° |
| 2026-05-05 10:18 | 18.04241 | -63.11339 | 16 ft | 18 kts | 281° |
| 2026-05-05 10:18 | 18.04222 | -63.11453 | 16 ft | 15 kts | 257° |
| 2026-05-05 10:19 | 18.04220 | -63.11460 | 15 ft | 1 kts | 257° |
| 2026-05-05 10:19 | 18.04157 | -63.11556 | 16 ft | 10 kts | 233° |
| 2026-05-05 10:19 | 18.04086 | -63.11649 | 16 ft | 9 kts | 219° |
| 2026-05-05 10:19 | 18.04021 | -63.11648 | 16 ft | 12 kts | 163° |
| 2026-05-05 10:20 | 18.04002 | -63.11538 | 16 ft | 32 kts | 83° |
| 2026-05-05 10:20 | 18.04048 | -63.11174 | 18 ft | 68 kts | 89° |
| 2026-05-05 10:20 | 18.04034 | -63.10630 | 163 ft | 80 kts | 113° |
| 2026-05-05 10:20 | 18.03590 | -63.10383 | 377 ft | 92 kts | 191° |
| 2026-05-05 10:21 | 18.02976 | -63.10883 | 407 ft | 116 kts | 205° |
| 2026-05-05 10:21 | 18.02260 | -63.10836 | 594 ft | 115 kts | 139° |
| 2026-05-05 10:21 | 18.02065 | -63.10049 | 894 ft | 111 kts | 77° |
| 2026-05-05 10:21 | 18.02034 | -63.09338 | 1190 ft | 103 kts | 125° |
| 2026-05-05 10:22 | 18.01624 | -63.08737 | 1506 ft | 96 kts | 120° |
| 2026-05-05 10:22 | 18.01299 | -63.08140 | 1811 ft | 96 kts | 119° |
| 2026-05-05 10:22 | 18.00981 | -63.07508 | 2087 ft | 97 kts | 117° |
| 2026-05-05 10:22 | 18.00684 | -63.06896 | 2420 ft | 93 kts | 115° |
| 2026-05-05 10:23 | 18.00396 | -63.06282 | 2694 ft | 94 kts | 115° |
| 2026-05-05 10:23 | 18.00117 | -63.05676 | 3001 ft | 91 kts | 115° |
| 2026-05-05 10:23 | 17.99837 | -63.05070 | 3269 ft | 93 kts | 115° |
| 2026-05-05 10:23 | 17.99564 | -63.04465 | 3549 ft | 91 kts | 115° |
| 2026-05-05 10:24 | 17.99288 | -63.03858 | 3790 ft | 94 kts | 115° |
| 2026-05-05 10:24 | 17.98998 | -63.03224 | 4198 ft | 95 kts | 115° |
| 2026-05-05 10:24 | 17.98718 | -63.02606 | 4664 ft | 93 kts | 116° |
| 2026-05-05 10:24 | 17.98436 | -63.01985 | 5011 ft | 103 kts | 115° |
| 2026-05-05 10:25 | 17.98082 | -63.01220 | 5167 ft | 123 kts | 116° |
| 2026-05-05 10:25 | 17.97729 | -63.00447 | 5670 ft | 112 kts | 116° |
| 2026-05-05 10:25 | 17.97385 | -62.99692 | 5978 ft | 120 kts | 116° |
| 2026-05-05 10:25 | 17.97011 | -62.98872 | 6254 ft | 128 kts | 116° |
| 2026-05-05 10:26 | 17.96632 | -62.98040 | 6656 ft | 123 kts | 116° |
| 2026-05-05 10:26 | 17.96265 | -62.97233 | 7004 ft | 121 kts | 116° |
| 2026-05-05 10:26 | 17.95896 | -62.96422 | 7259 ft | 128 kts | 116° |
| 2026-05-05 10:26 | 17.95480 | -62.95544 | 7438 ft | 136 kts | 118° |
| 2026-05-05 10:27 | 17.95078 | -62.94649 | 7699 ft | 137 kts | 116° |
| 2026-05-05 10:27 | 17.94667 | -62.93737 | 7910 ft | 141 kts | 116° |
| 2026-05-05 10:27 | 17.94237 | -62.92748 | 7787 ft | 155 kts | 115° |
| 2026-05-05 10:27 | 17.93918 | -62.91693 | 7316 ft | 150 kts | 86° |
| 2026-05-05 10:28 | 17.93830 | -62.90693 | 6996 ft | 136 kts | 120° |
| 2026-05-05 10:28 | 17.93003 | -62.90224 | 6495 ft | 145 kts | 173° |
| 2026-05-05 10:28 | 17.92065 | -62.90401 | 6265 ft | 131 kts | 189° |
| 2026-05-05 10:28 | 17.91469 | -62.90367 | 5832 ft | 137 kts | 150° |
| 2026-05-05 10:29 | 17.90712 | -62.89824 | 5423 ft | 132 kts | 163° |
| 2026-05-05 10:29 | 17.89831 | -62.90196 | 4681 ft | 166 kts | 237° |
| 2026-05-05 10:29 | 17.89957 | -62.91242 | 4232 ft | 118 kts | 313° |
| 2026-05-05 10:29 | 17.90743 | -62.91539 | 3165 ft | 139 kts | 16° |
| 2026-05-05 10:30 | 17.91317 | -62.90865 | 2522 ft | 135 kts | 95° |
| 2026-05-05 10:30 | 17.90725 | -62.90185 | 2167 ft | 127 kts | 149° |
| 2026-05-05 10:30 | 17.90099 | -62.89598 | 1732 ft | 121 kts | 124° |
| 2026-05-05 10:30 | 17.89690 | -62.88888 | 1378 ft | 113 kts | 104° |
| 2026-05-05 10:31 | 17.89713 | -62.88153 | 1247 ft | 86 kts | 70° |
| 2026-05-05 10:31 | 17.90082 | -62.87701 | 862 ft | 76 kts | 59° |
| 2026-05-05 10:31 | 17.90347 | -62.87247 | 463 ft | 74 kts | 62° |
| 2026-05-05 10:31 | 17.90488 | -62.86743 | 425 ft | 74 kts | 86° |
| 2026-05-05 10:32 | 17.90440 | -62.86223 | 466 ft | 74 kts | 90° |
| 2026-05-05 10:32 | 17.90396 | -62.85664 | 511 ft | 79 kts | 86° |
| 2026-05-05 10:32 | 17.90403 | -62.85155 | 273 ft | 70 kts | 85° |
| 2026-05-05 10:32 | 17.90437 | -62.84636 | 50 ft | 69 kts | 85° |
| 2026-05-05 10:33 | 17.90434 | -62.84372 | 32 ft | 2 kts | 96° |
| 2026-05-05 10:33 | 17.90434 | -62.84363 | 32 ft | 9 kts | 81° |
| 2026-05-05 10:33 | 17.90455 | -62.84056 | 24 ft | 73 kts | 88° |
| 2026-05-05 10:33 | 17.90861 | -62.83822 | 267 ft | 110 kts | 324° |
| 2026-05-05 10:34 | 17.91304 | -62.84552 | 526 ft | 136 kts | 273° |
| 2026-05-05 10:34 | 17.91160 | -62.85547 | 632 ft | 144 kts | 238° |
| 2026-05-05 10:34 | 17.90435 | -62.85485 | 735 ft | 107 kts | 100° |
| 2026-05-05 10:34 | 17.90427 | -62.84964 | 285 ft | 73 kts | 91° |
| 2026-05-05 10:35 | 17.90436 | -62.84465 | 37 ft | 35 kts | 85° |
| 2026-05-05 10:35 | 17.90432 | -62.84395 | 33 ft | 23 kts | 140° |
| 2026-05-05 10:35 | 17.90367 | -62.84459 | 39 ft | 0 kts | 73° |
| 2026-05-05 10:35 | 17.90368 | -62.84457 | 39 ft | 0 kts | 74° |